sensor_id;sensor_type;location;lat;lon;timestamp;pressure;altitude;pressure_sealevel;temperature;humidity
65659;BME280;60181;53.258;6.932;2023-02-13T00:02:29;104017.33;;;15.20;64.83
65659;BME280;60181;53.258;6.932;2023-02-13T00:06:33;104016.24;;;15.19;64.90
65659;BME280;60181;53.258;6.932;2023-02-13T00:10:37;104014.78;;;15.18;65.35
65659;BME280;60181;53.258;6.932;2023-02-13T00:14:41;104012.66;;;15.17;64.29
65659;BME280;60181;53.258;6.932;2023-02-13T00:18:45;104010.53;;;15.17;64.16
65659;BME280;60181;53.258;6.932;2023-02-13T00:22:49;104008.12;;;15.16;64.47
65659;BME280;60181;53.258;6.932;2023-02-13T00:26:53;104007.41;;;15.15;64.27
65659;BME280;60181;53.258;6.932;2023-02-13T00:31:10;104005.98;;;15.15;63.99
65659;BME280;60181;53.258;6.932;2023-02-13T00:35:01;104004.20;;;15.14;64.15
65659;BME280;60181;53.258;6.932;2023-02-13T00:39:05;104002.29;;;15.14;63.85
65659;BME280;60181;53.258;6.932;2023-02-13T00:43:09;104001.81;;;15.14;64.16
65659;BME280;60181;53.258;6.932;2023-02-13T00:47:13;104000.79;;;15.14;64.18
65659;BME280;60181;53.258;6.932;2023-02-13T00:51:17;103999.60;;;15.13;64.13
65659;BME280;60181;53.258;6.932;2023-02-13T00:55:21;103999.07;;;15.12;64.20
65659;BME280;60181;53.258;6.932;2023-02-13T00:59:25;103996.72;;;15.12;64.10
65659;BME280;60181;53.258;6.932;2023-02-13T01:03:29;103994.07;;;15.11;64.17
65659;BME280;60181;53.258;6.932;2023-02-13T01:07:33;103991.11;;;15.11;64.26
65659;BME280;60181;53.258;6.932;2023-02-13T01:11:37;103988.95;;;15.10;64.47
65659;BME280;60181;53.258;6.932;2023-02-13T01:15:41;103987.26;;;15.10;64.65
65659;BME280;60181;53.258;6.932;2023-02-13T01:19:45;103986.17;;;15.09;64.79
65659;BME280;60181;53.258;6.932;2023-02-13T01:23:49;103984.06;;;15.09;64.98
65659;BME280;60181;53.258;6.932;2023-02-13T01:27:53;103982.87;;;15.09;64.91
65659;BME280;60181;53.258;6.932;2023-02-13T01:31:57;103981.70;;;15.11;65.16
65659;BME280;60181;53.258;6.932;2023-02-13T01:36:04;103980.03;;;15.11;65.21
65659;BME280;60181;53.258;6.932;2023-02-13T01:40:05;103979.13;;;15.12;65.18
65659;BME280;60181;53.258;6.932;2023-02-13T01:48:16;103976.25;;;15.12;65.04
65659;BME280;60181;53.258;6.932;2023-02-13T01:52:17;103973.16;;;15.12;65.07
65659;BME280;60181;53.258;6.932;2023-02-13T01:56:24;103969.76;;;15.12;65.11
65659;BME280;60181;53.258;6.932;2023-02-13T02:00:25;103965.99;;;15.11;65.12
65659;BME280;60181;53.258;6.932;2023-02-13T02:04:30;103963.05;;;15.11;65.02
65659;BME280;60181;53.258;6.932;2023-02-13T02:08:33;103960.11;;;15.10;65.07
65659;BME280;60181;53.258;6.932;2023-02-13T02:12:41;103956.79;;;15.09;64.93
65659;BME280;60181;53.258;6.932;2023-02-13T02:16:41;103953.75;;;15.08;64.89
65659;BME280;60181;53.258;6.932;2023-02-13T02:37:07;103946.89;;;15.04;64.78
65659;BME280;60181;53.258;6.932;2023-02-13T02:41:15;103944.89;;;15.04;64.57
65659;BME280;60181;53.258;6.932;2023-02-13T02:49:13;103941.28;;;15.04;64.60
65659;BME280;60181;53.258;6.932;2023-02-13T02:57:23;103936.27;;;15.03;64.80
65659;BME280;60181;53.258;6.932;2023-02-13T03:01:25;103934.11;;;15.01;64.28
65659;BME280;60181;53.258;6.932;2023-02-13T03:05:29;103932.65;;;15.01;64.70
65659;BME280;60181;53.258;6.932;2023-02-13T03:09:38;103930.59;;;15.01;64.72
65659;BME280;60181;53.258;6.932;2023-02-13T03:13:38;103928.89;;;15.01;64.63
65659;BME280;60181;53.258;6.932;2023-02-13T03:17:41;103926.64;;;15.01;64.64
65659;BME280;60181;53.258;6.932;2023-02-13T03:21:55;103924.88;;;15.00;65.19
65659;BME280;60181;53.258;6.932;2023-02-13T03:29:55;103921.86;;;15.00;64.61
65659;BME280;60181;53.258;6.932;2023-02-13T03:34:16;103921.06;;;14.99;64.79
65659;BME280;60181;53.258;6.932;2023-02-13T03:38:02;103919.63;;;14.98;64.93
65659;BME280;60181;53.258;6.932;2023-02-13T03:42:06;103918.20;;;14.99;64.86
65659;BME280;60181;53.258;6.932;2023-02-13T03:46:08;103919.80;;;15.00;64.87
65659;BME280;60181;53.258;6.932;2023-02-13T03:50:12;103921.22;;;14.97;65.21
65659;BME280;60181;53.258;6.932;2023-02-13T03:58:31;103923.68;;;14.87;65.60
65659;BME280;60181;53.258;6.932;2023-02-13T04:02:26;103924.32;;;14.83;65.67
65659;BME280;60181;53.258;6.932;2023-02-13T04:06:29;103925.04;;;14.78;65.67
65659;BME280;60181;53.258;6.932;2023-02-13T04:10:33;103927.10;;;14.74;65.71
65659;BME280;60181;53.258;6.932;2023-02-13T04:14:47;103929.69;;;14.70;65.71
65659;BME280;60181;53.258;6.932;2023-02-13T04:18:40;103932.01;;;14.67;65.71
65659;BME280;60181;53.258;6.932;2023-02-13T04:22:45;103932.74;;;14.64;65.68
65659;BME280;60181;53.258;6.932;2023-02-13T04:26:48;103932.75;;;14.61;65.70
65659;BME280;60181;53.258;6.932;2023-02-13T04:30:52;103932.86;;;14.59;65.67
65659;BME280;60181;53.258;6.932;2023-02-13T04:34:56;103931.48;;;14.57;65.68
65659;BME280;60181;53.258;6.932;2023-02-13T04:39:00;103930.62;;;14.55;65.66
65659;BME280;60181;53.258;6.932;2023-02-13T04:43:04;103930.08;;;14.53;65.65
65659;BME280;60181;53.258;6.932;2023-02-13T04:47:09;103931.81;;;14.51;65.60
65659;BME280;60181;53.258;6.932;2023-02-13T04:51:12;103932.39;;;14.50;65.64
65659;BME280;60181;53.258;6.932;2023-02-13T04:55:17;103931.13;;;14.48;65.62
65659;BME280;60181;53.258;6.932;2023-02-13T04:59:20;103929.81;;;14.47;65.61
65659;BME280;60181;53.258;6.932;2023-02-13T05:03:24;103929.33;;;14.46;65.58
65659;BME280;60181;53.258;6.932;2023-02-13T05:07:28;103929.33;;;14.44;65.57
65659;BME280;60181;53.258;6.932;2023-02-13T05:11:32;103929.26;;;14.45;65.39
65659;BME280;60181;53.258;6.932;2023-02-13T05:15:36;103928.83;;;14.46;64.99
65659;BME280;60181;53.258;6.932;2023-02-13T05:19:40;103929.09;;;14.45;65.10
65659;BME280;60181;53.258;6.932;2023-02-13T05:23:44;103928.76;;;14.43;65.22
65659;BME280;60181;53.258;6.932;2023-02-13T05:27:48;103928.30;;;14.43;65.00
65659;BME280;60181;53.258;6.932;2023-02-13T05:31:54;103927.00;;;14.42;65.25
65659;BME280;60181;53.258;6.932;2023-02-13T05:35:56;103926.64;;;14.41;65.38
65659;BME280;60181;53.258;6.932;2023-02-13T05:40:00;103927.28;;;14.40;65.52
65659;BME280;60181;53.258;6.932;2023-02-13T05:44:04;103927.61;;;14.38;65.41
65659;BME280;60181;53.258;6.932;2023-02-13T05:48:08;103928.28;;;14.37;65.50
65659;BME280;60181;53.258;6.932;2023-02-13T05:52:12;103930.36;;;14.36;65.54
65659;BME280;60181;53.258;6.932;2023-02-13T05:56:16;103931.36;;;14.35;65.51
65659;BME280;60181;53.258;6.932;2023-02-13T06:00:20;103931.70;;;14.33;65.54
65659;BME280;60181;53.258;6.932;2023-02-13T06:04:24;103932.63;;;14.32;65.62
65659;BME280;60181;53.258;6.932;2023-02-13T06:08:28;103933.80;;;14.32;65.54
65659;BME280;60181;53.258;6.932;2023-02-13T06:12:32;103937.74;;;14.31;65.45
65659;BME280;60181;53.258;6.932;2023-02-13T06:16:36;103943.90;;;14.31;65.49
65659;BME280;60181;53.258;6.932;2023-02-13T06:20:40;103947.83;;;14.30;65.58
65659;BME280;60181;53.258;6.932;2023-02-13T06:24:44;103948.96;;;14.30;65.69
65659;BME280;60181;53.258;6.932;2023-02-13T06:28:48;103951.06;;;14.29;65.69
65659;BME280;60181;53.258;6.932;2023-02-13T06:32:52;103955.25;;;14.29;66.49
65659;BME280;60181;53.258;6.932;2023-02-13T06:36:56;103958.67;;;14.28;66.51
65659;BME280;60181;53.258;6.932;2023-02-13T06:41:00;103961.30;;;14.28;65.40
65659;BME280;60181;53.258;6.932;2023-02-13T06:45:05;103963.78;;;14.28;65.57
65659;BME280;60181;53.258;6.932;2023-02-13T06:49:08;103965.91;;;14.28;65.48
65659;BME280;60181;53.258;6.932;2023-02-13T06:53:12;103968.13;;;14.28;65.31
65659;BME280;60181;53.258;6.932;2023-02-13T06:57:16;103970.59;;;14.28;65.39
65659;BME280;60181;53.258;6.932;2023-02-13T07:01:20;103973.19;;;14.27;65.52
65659;BME280;60181;53.258;6.932;2023-02-13T07:05:24;103976.29;;;14.27;65.55
65659;BME280;60181;53.258;6.932;2023-02-13T07:09:29;103979.13;;;14.26;65.53
65659;BME280;60181;53.258;6.932;2023-02-13T07:13:32;103980.97;;;14.25;65.62
65659;BME280;60181;53.258;6.932;2023-02-13T07:17:36;103982.35;;;14.24;65.46
65659;BME280;60181;53.258;6.932;2023-02-13T07:21:40;103982.54;;;14.24;65.52
65659;BME280;60181;53.258;6.932;2023-02-13T07:25:44;103982.20;;;14.24;65.50
65659;BME280;60181;53.258;6.932;2023-02-13T07:29:48;103981.24;;;14.23;65.51
65659;BME280;60181;53.258;6.932;2023-02-13T07:33:52;103981.31;;;14.23;65.54
65659;BME280;60181;53.258;6.932;2023-02-13T07:37:56;103979.64;;;14.23;65.36
65659;BME280;60181;53.258;6.932;2023-02-13T07:42:00;103977.81;;;14.25;65.23
65659;BME280;60181;53.258;6.932;2023-02-13T07:46:04;103976.06;;;14.26;65.25
65659;BME280;60181;53.258;6.932;2023-02-13T07:50:08;103973.83;;;14.27;65.17
65659;BME280;60181;53.258;6.932;2023-02-13T07:54:12;103972.95;;;14.27;65.37
65659;BME280;60181;53.258;6.932;2023-02-13T07:58:16;103972.83;;;14.28;65.33
65659;BME280;60181;53.258;6.932;2023-02-13T08:02:20;103972.19;;;14.27;65.37
65659;BME280;60181;53.258;6.932;2023-02-13T08:06:24;103972.62;;;14.26;65.51
65659;BME280;60181;53.258;6.932;2023-02-13T08:10:28;103974.82;;;14.25;65.47
65659;BME280;60181;53.258;6.932;2023-02-13T08:14:32;103977.98;;;14.25;65.44
65659;BME280;60181;53.258;6.932;2023-02-13T08:18:36;103978.92;;;14.24;65.39
65659;BME280;60181;53.258;6.932;2023-02-13T08:22:40;103979.75;;;14.24;65.31
65659;BME280;60181;53.258;6.932;2023-02-13T08:26:44;103981.85;;;14.24;65.29
65659;BME280;60181;53.258;6.932;2023-02-13T08:30:48;103985.66;;;14.25;65.18
65659;BME280;60181;53.258;6.932;2023-02-13T08:34:52;103990.25;;;14.26;65.23
65659;BME280;60181;53.258;6.932;2023-02-13T08:38:56;103995.19;;;14.27;65.09
65659;BME280;60181;53.258;6.932;2023-02-13T08:43:01;103999.04;;;14.29;65.18
65659;BME280;60181;53.258;6.932;2023-02-13T08:47:04;104002.11;;;14.33;65.14
65659;BME280;60181;53.258;6.932;2023-02-13T08:51:09;104004.08;;;14.39;64.86
65659;BME280;60181;53.258;6.932;2023-02-13T08:55:12;104005.09;;;14.42;64.90
65659;BME280;60181;53.258;6.932;2023-02-13T08:59:16;104005.97;;;14.43;64.91
65659;BME280;60181;53.258;6.932;2023-02-13T09:03:20;104006.69;;;14.44;64.95
65659;BME280;60181;53.258;6.932;2023-02-13T09:07:24;104006.04;;;14.45;64.94
65659;BME280;60181;53.258;6.932;2023-02-13T09:11:28;104005.11;;;14.46;64.92
65659;BME280;60181;53.258;6.932;2023-02-13T09:15:32;104003.97;;;14.46;64.87
65659;BME280;60181;53.258;6.932;2023-02-13T09:19:36;104002.66;;;14.46;64.83
65659;BME280;60181;53.258;6.932;2023-02-13T09:23:40;104004.28;;;14.47;64.78
65659;BME280;60181;53.258;6.932;2023-02-13T09:27:44;104004.70;;;14.47;64.75
65659;BME280;60181;53.258;6.932;2023-02-13T09:31:48;104005.58;;;14.48;64.74
65659;BME280;60181;53.258;6.932;2023-02-13T09:35:52;104005.51;;;14.48;64.69
65659;BME280;60181;53.258;6.932;2023-02-13T09:39:56;104006.64;;;14.56;63.61
65659;BME280;60181;53.258;6.932;2023-02-13T09:44:01;104006.86;;;14.71;63.24
65659;BME280;60181;53.258;6.932;2023-02-13T09:48:05;104006.97;;;14.74;64.30
65659;BME280;60181;53.258;6.932;2023-02-13T09:52:08;104007.25;;;14.72;64.56
65659;BME280;60181;53.258;6.932;2023-02-13T09:56:12;104007.10;;;14.69;64.65
65659;BME280;60181;53.258;6.932;2023-02-13T10:00:28;104006.69;;;14.67;64.68
65659;BME280;60181;53.258;6.932;2023-02-13T10:04:28;104006.63;;;14.65;64.70
65659;BME280;60181;53.258;6.932;2023-02-13T10:12:31;104009.16;;;14.62;64.69
65659;BME280;60181;53.258;6.932;2023-02-13T10:16:34;104009.63;;;14.61;64.66
65659;BME280;60181;53.258;6.932;2023-02-13T10:20:38;104010.25;;;14.61;64.66
65659;BME280;60181;53.258;6.932;2023-02-13T10:24:46;104010.18;;;14.60;64.64
65659;BME280;60181;53.258;6.932;2023-02-13T10:28:54;104009.36;;;14.58;64.62
65659;BME280;60181;53.258;6.932;2023-02-13T10:36:52;104007.04;;;14.57;64.58
65659;BME280;60181;53.258;6.932;2023-02-13T10:41:14;104006.08;;;14.56;64.57
65659;BME280;60181;53.258;6.932;2023-02-13T10:45:02;104006.40;;;14.55;64.53
65659;BME280;60181;53.258;6.932;2023-02-13T10:49:10;104006.41;;;14.55;64.70
65659;BME280;60181;53.258;6.932;2023-02-13T10:53:13;104005.42;;;14.56;64.05
65659;BME280;60181;53.258;6.932;2023-02-13T10:57:20;104004.86;;;14.60;66.52
65659;BME280;60181;53.258;6.932;2023-02-13T11:05:21;104001.49;;;14.71;65.73
65659;BME280;60181;53.258;6.932;2023-02-13T11:09:24;103999.40;;;14.70;65.59
65659;BME280;60181;53.258;6.932;2023-02-13T11:13:28;103997.68;;;14.69;65.40
65659;BME280;60181;53.258;6.932;2023-02-13T11:17:35;103996.63;;;14.68;65.30
65659;BME280;60181;53.258;6.932;2023-02-13T11:21:36;103994.47;;;14.67;65.14
65659;BME280;60181;53.258;6.932;2023-02-13T11:25:40;103992.52;;;14.66;64.98
65659;BME280;60181;53.258;6.932;2023-02-13T11:29:54;103989.78;;;14.66;64.91
65659;BME280;60181;53.258;6.932;2023-02-13T11:33:48;103985.73;;;14.66;64.81
65659;BME280;60181;53.258;6.932;2023-02-13T11:41:56;103978.97;;;14.66;64.65
65659;BME280;60181;53.258;6.932;2023-02-13T11:46:01;103975.60;;;14.66;64.59
65659;BME280;60181;53.258;6.932;2023-02-13T11:50:05;103971.72;;;14.66;64.48
65659;BME280;60181;53.258;6.932;2023-02-13T12:02:17;103962.72;;;14.66;64.38
65659;BME280;60181;53.258;6.932;2023-02-13T12:06:20;103960.06;;;14.65;64.46
65659;BME280;60181;53.258;6.932;2023-02-13T12:10:25;103956.30;;;14.65;64.58
65659;BME280;60181;53.258;6.932;2023-02-13T12:14:29;103952.36;;;14.64;64.62
65659;BME280;60181;53.258;6.932;2023-02-13T12:18:39;103950.04;;;14.63;64.55
65659;BME280;60181;53.258;6.932;2023-02-13T12:26:43;103945.19;;;14.62;64.63
65659;BME280;60181;53.258;6.932;2023-02-13T12:31:05;103941.64;;;14.62;64.56
65659;BME280;60181;53.258;6.932;2023-02-13T12:51:10;103919.52;;;14.66;64.64
65659;BME280;60181;53.258;6.932;2023-02-13T12:55:18;103916.13;;;14.66;64.59
65659;BME280;60181;53.258;6.932;2023-02-13T13:03:32;103910.78;;;14.65;64.57
65659;BME280;60181;53.258;6.932;2023-02-13T13:07:36;103907.63;;;14.65;64.49
65659;BME280;60181;53.258;6.932;2023-02-13T13:15:44;103902.09;;;14.64;64.44
65659;BME280;60181;53.258;6.932;2023-02-13T13:19:51;103899.78;;;14.64;64.47
65659;BME280;60181;53.258;6.932;2023-02-13T13:27:43;103893.85;;;14.64;64.35
65659;BME280;60181;53.258;6.932;2023-02-13T13:31:51;103889.47;;;14.65;64.33
65659;BME280;60181;53.258;6.932;2023-02-13T13:35:52;103886.27;;;14.65;64.30
65659;BME280;60181;53.258;6.932;2023-02-13T13:52:17;103874.91;;;14.67;64.19
65659;BME280;60181;53.258;6.932;2023-02-13T13:56:08;103872.20;;;14.67;64.20
65659;BME280;60181;53.258;6.932;2023-02-13T14:16:41;103858.03;;;14.68;64.16
65659;BME280;60181;53.258;6.932;2023-02-13T14:20:36;103853.98;;;14.68;64.23
65659;BME280;60181;53.258;6.932;2023-02-13T14:24:36;103850.10;;;14.68;64.23
65659;BME280;60181;53.258;6.932;2023-02-13T14:32:44;103846.02;;;14.68;64.24
65659;BME280;60181;53.258;6.932;2023-02-13T14:36:59;103845.02;;;14.68;64.25
65659;BME280;60181;53.258;6.932;2023-02-13T14:40:52;103843.09;;;14.67;64.20
65659;BME280;60181;53.258;6.932;2023-02-13T14:44:56;103840.03;;;14.67;64.21
65659;BME280;60181;53.258;6.932;2023-02-13T14:49:09;103836.01;;;14.66;64.15
65659;BME280;60181;53.258;6.932;2023-02-13T14:53:05;103834.99;;;14.67;64.12
65659;BME280;60181;53.258;6.932;2023-02-13T14:57:20;103833.34;;;14.67;64.20
65659;BME280;60181;53.258;6.932;2023-02-13T15:01:27;103832.85;;;14.67;64.17
65659;BME280;60181;53.258;6.932;2023-02-13T15:05:16;103832.18;;;14.67;64.10
65659;BME280;60181;53.258;6.932;2023-02-13T15:09:25;103830.41;;;14.66;64.15
65659;BME280;60181;53.258;6.932;2023-02-13T15:13:25;103829.37;;;14.67;64.18
65659;BME280;60181;53.258;6.932;2023-02-13T15:17:29;103828.38;;;14.67;64.17
65659;BME280;60181;53.258;6.932;2023-02-13T15:21:31;103827.23;;;14.67;64.17
65659;BME280;60181;53.258;6.932;2023-02-13T15:25:36;103824.79;;;14.66;64.20
65659;BME280;60181;53.258;6.932;2023-02-13T15:29:51;103822.23;;;14.66;64.24
65659;BME280;60181;53.258;6.932;2023-02-13T15:33:44;103819.18;;;14.66;64.24
65659;BME280;60181;53.258;6.932;2023-02-13T15:37:47;103817.36;;;14.66;64.29
65659;BME280;60181;53.258;6.932;2023-02-13T15:41:53;103813.88;;;14.65;64.34
65659;BME280;60181;53.258;6.932;2023-02-13T15:45:56;103811.51;;;14.65;64.36
65659;BME280;60181;53.258;6.932;2023-02-13T15:49:59;103809.85;;;14.64;64.36
65659;BME280;60181;53.258;6.932;2023-02-13T15:54:05;103808.33;;;14.64;64.40
65659;BME280;60181;53.258;6.932;2023-02-13T15:58:10;103806.37;;;14.63;64.42
65659;BME280;60181;53.258;6.932;2023-02-13T16:02:35;103804.05;;;14.63;64.42
65659;BME280;60181;53.258;6.932;2023-02-13T16:06:16;103800.61;;;14.62;64.43
65659;BME280;60181;53.258;6.932;2023-02-13T16:10:30;103799.11;;;14.61;64.51
65659;BME280;60181;53.258;6.932;2023-02-13T16:14:24;103796.68;;;14.64;64.30
65659;BME280;60181;53.258;6.932;2023-02-13T16:18:27;103793.93;;;14.66;64.42
65659;BME280;60181;53.258;6.932;2023-02-13T16:22:38;103792.76;;;14.66;64.55
65659;BME280;60181;53.258;6.932;2023-02-13T16:26:35;103793.04;;;14.65;64.65
65659;BME280;60181;53.258;6.932;2023-02-13T16:30:40;103794.79;;;14.64;64.75
65659;BME280;60181;53.258;6.932;2023-02-13T16:34:43;103797.61;;;14.63;64.78
65659;BME280;60181;53.258;6.932;2023-02-13T16:38:48;103801.01;;;14.62;64.80
65659;BME280;60181;53.258;6.932;2023-02-13T16:42:51;103802.19;;;14.61;64.73
65659;BME280;60181;53.258;6.932;2023-02-13T16:47:02;103804.05;;;14.61;64.59
65659;BME280;60181;53.258;6.932;2023-02-13T16:50:59;103806.79;;;14.62;64.54
65659;BME280;60181;53.258;6.932;2023-02-13T16:55:04;103808.51;;;14.61;64.56
65659;BME280;60181;53.258;6.932;2023-02-13T17:03:11;103810.44;;;14.61;64.54
65659;BME280;60181;53.258;6.932;2023-02-13T17:07:17;103810.77;;;14.61;64.54
65659;BME280;60181;53.258;6.932;2023-02-13T17:11:19;103810.69;;;14.61;64.49
65659;BME280;60181;53.258;6.932;2023-02-13T17:15:24;103811.84;;;14.61;64.51
65659;BME280;60181;53.258;6.932;2023-02-13T17:19:27;103812.83;;;14.61;64.53
65659;BME280;60181;53.258;6.932;2023-02-13T17:23:31;103814.14;;;14.61;64.53
65659;BME280;60181;53.258;6.932;2023-02-13T17:27:35;103816.78;;;14.61;64.54
65659;BME280;60181;53.258;6.932;2023-02-13T17:31:39;103817.61;;;14.61;64.54
65659;BME280;60181;53.258;6.932;2023-02-13T17:35:43;103817.19;;;14.60;64.56
65659;BME280;60181;53.258;6.932;2023-02-13T17:39:47;103817.19;;;14.60;64.58
65659;BME280;60181;53.258;6.932;2023-02-13T17:43:51;103816.53;;;14.60;64.59
65659;BME280;60181;53.258;6.932;2023-02-13T17:47:55;103816.27;;;14.60;64.60
65659;BME280;60181;53.258;6.932;2023-02-13T17:51:59;103815.45;;;14.60;64.60
65659;BME280;60181;53.258;6.932;2023-02-13T17:56:03;103813.51;;;14.60;64.60
65659;BME280;60181;53.258;6.932;2023-02-13T18:00:08;103811.28;;;14.59;64.61
65659;BME280;60181;53.258;6.932;2023-02-13T18:04:11;103808.72;;;14.59;64.61
65659;BME280;60181;53.258;6.932;2023-02-13T18:08:15;103806.08;;;14.59;64.63
65659;BME280;60181;53.258;6.932;2023-02-13T18:12:21;103804.00;;;14.59;64.98
65659;BME280;60181;53.258;6.932;2023-02-13T18:16:23;103801.64;;;14.60;64.64
65659;BME280;60181;53.258;6.932;2023-02-13T18:20:27;103801.03;;;14.60;64.67
65659;BME280;60181;53.258;6.932;2023-02-13T18:24:31;103800.63;;;14.60;64.72
65659;BME280;60181;53.258;6.932;2023-02-13T18:28:35;103799.88;;;14.59;64.73
65659;BME280;60181;53.258;6.932;2023-02-13T18:32:39;103797.92;;;14.58;64.74
65659;BME280;60181;53.258;6.932;2023-02-13T18:36:43;103796.30;;;14.57;64.79
65659;BME280;60181;53.258;6.932;2023-02-13T18:40:47;103794.54;;;14.57;64.80
65659;BME280;60181;53.258;6.932;2023-02-13T18:44:51;103792.50;;;14.56;64.81
65659;BME280;60181;53.258;6.932;2023-02-13T18:48:55;103790.55;;;14.55;64.81
65659;BME280;60181;53.258;6.932;2023-02-13T18:52:59;103789.71;;;14.54;64.82
65659;BME280;60181;53.258;6.932;2023-02-13T18:57:03;103788.84;;;14.54;64.78
65659;BME280;60181;53.258;6.932;2023-02-13T19:01:08;103788.33;;;14.53;64.80
65659;BME280;60181;53.258;6.932;2023-02-13T19:05:11;103787.06;;;14.53;64.77
65659;BME280;60181;53.258;6.932;2023-02-13T19:09:15;103787.06;;;14.53;64.77
65659;BME280;60181;53.258;6.932;2023-02-13T19:13:19;103787.71;;;14.53;64.75
65659;BME280;60181;53.258;6.932;2023-02-13T19:17:23;103788.87;;;14.53;64.76
65659;BME280;60181;53.258;6.932;2023-02-13T19:21:28;103790.52;;;14.53;64.77
65659;BME280;60181;53.258;6.932;2023-02-13T19:25:34;103791.35;;;14.53;64.78
65659;BME280;60181;53.258;6.932;2023-02-13T19:29:35;103792.90;;;14.53;64.80
65659;BME280;60181;53.258;6.932;2023-02-13T19:33:39;103795.21;;;14.53;64.77
65659;BME280;60181;53.258;6.932;2023-02-13T19:37:43;103796.44;;;14.53;64.78
65659;BME280;60181;53.258;6.932;2023-02-13T19:41:47;103797.11;;;14.53;64.80
65659;BME280;60181;53.258;6.932;2023-02-13T19:45:51;103796.59;;;14.52;64.83
65659;BME280;60181;53.258;6.932;2023-02-13T19:49:55;103797.90;;;14.52;64.81
65659;BME280;60181;53.258;6.932;2023-02-13T19:54:03;103797.71;;;14.51;64.81
65659;BME280;60181;53.258;6.932;2023-02-13T19:58:03;103797.02;;;14.51;64.81
65659;BME280;60181;53.258;6.932;2023-02-13T20:02:08;103797.89;;;14.51;64.83
65659;BME280;60181;53.258;6.932;2023-02-13T20:06:12;103798.28;;;14.50;64.83
65659;BME280;60181;53.258;6.932;2023-02-13T20:10:15;103799.96;;;14.50;64.84
65659;BME280;60181;53.258;6.932;2023-02-13T20:14:19;103801.11;;;14.49;64.81
65659;BME280;60181;53.258;6.932;2023-02-13T20:18:23;103802.22;;;14.49;64.83
65659;BME280;60181;53.258;6.932;2023-02-13T20:22:27;103802.37;;;14.48;64.84
65659;BME280;60181;53.258;6.932;2023-02-13T20:26:31;103803.09;;;14.48;64.83
65659;BME280;60181;53.258;6.932;2023-02-13T20:30:38;103802.34;;;14.48;64.80
65659;BME280;60181;53.258;6.932;2023-02-13T20:34:39;103802.69;;;14.48;64.79
65659;BME280;60181;53.258;6.932;2023-02-13T20:38:43;103803.33;;;14.48;64.77
65659;BME280;60181;53.258;6.932;2023-02-13T20:42:47;103803.50;;;14.48;64.76
65659;BME280;60181;53.258;6.932;2023-02-13T20:46:51;103803.50;;;14.48;64.75
65659;BME280;60181;53.258;6.932;2023-02-13T20:50:56;103803.55;;;14.47;64.76
65659;BME280;60181;53.258;6.932;2023-02-13T20:54:59;103802.89;;;14.47;64.76
65659;BME280;60181;53.258;6.932;2023-02-13T20:59:03;103801.40;;;14.47;64.77
65659;BME280;60181;53.258;6.932;2023-02-13T21:03:07;103800.40;;;14.47;64.78
65659;BME280;60181;53.258;6.932;2023-02-13T21:07:11;103800.99;;;14.47;64.75
65659;BME280;60181;53.258;6.932;2023-02-13T21:11:15;103801.39;;;14.47;64.78
65659;BME280;60181;53.258;6.932;2023-02-13T21:15:19;103801.29;;;14.47;64.78
65659;BME280;60181;53.258;6.932;2023-02-13T21:19:23;103801.29;;;14.47;64.79
65659;BME280;60181;53.258;6.932;2023-02-13T21:23:27;103799.68;;;14.50;64.16
65659;BME280;60181;53.258;6.932;2023-02-13T21:27:32;103798.73;;;14.55;64.28
65659;BME280;60181;53.258;6.932;2023-02-13T21:31:36;103797.36;;;14.62;64.16
65659;BME280;60181;53.258;6.932;2023-02-13T21:35:39;103797.36;;;14.74;63.66
65659;BME280;60181;53.258;6.932;2023-02-13T21:39:43;103796.83;;;14.87;63.35
65659;BME280;60181;53.258;6.932;2023-02-13T21:43:47;103796.11;;;14.96;63.32
65659;BME280;60181;53.258;6.932;2023-02-13T21:47:53;103795.02;;;15.03;63.36
65659;BME280;60181;53.258;6.932;2023-02-13T21:51:55;103793.91;;;15.08;63.31
65659;BME280;60181;53.258;6.932;2023-02-13T21:56:02;103791.37;;;15.11;63.22
65659;BME280;60181;53.258;6.932;2023-02-13T22:00:03;103789.36;;;15.14;63.21
65659;BME280;60181;53.258;6.932;2023-02-13T22:04:07;103788.11;;;15.15;63.18
65659;BME280;60181;53.258;6.932;2023-02-13T22:08:11;103787.51;;;15.16;63.18
65659;BME280;60181;53.258;6.932;2023-02-13T22:12:15;103786.23;;;15.17;63.18
65659;BME280;60181;53.258;6.932;2023-02-13T22:16:19;103784.09;;;15.17;63.20
65659;BME280;60181;53.258;6.932;2023-02-13T22:20:23;103782.76;;;15.17;63.19
65659;BME280;60181;53.258;6.932;2023-02-13T22:24:27;103781.15;;;15.16;64.24
65659;BME280;60181;53.258;6.932;2023-02-13T22:28:31;103780.02;;;15.15;64.68
65659;BME280;60181;53.258;6.932;2023-02-13T22:32:37;103777.11;;;15.15;63.73
65659;BME280;60181;53.258;6.932;2023-02-13T22:36:39;103774.33;;;15.14;65.14
65659;BME280;60181;53.258;6.932;2023-02-13T22:40:43;103774.11;;;15.13;64.43
65659;BME280;60181;53.258;6.932;2023-02-13T22:44:47;103773.56;;;15.12;64.72
65659;BME280;60181;53.258;6.932;2023-02-13T22:48:51;103772.83;;;15.11;63.29
65659;BME280;60181;53.258;6.932;2023-02-13T22:52:55;103773.60;;;15.10;63.10
65659;BME280;60181;53.258;6.932;2023-02-13T22:56:59;103774.44;;;15.08;66.13
65659;BME280;60181;53.258;6.932;2023-02-13T23:01:09;103774.68;;;15.07;65.61
65659;BME280;60181;53.258;6.932;2023-02-13T23:05:07;103775.38;;;15.06;64.84
65659;BME280;60181;53.258;6.932;2023-02-13T23:09:11;103775.57;;;15.05;65.15
65659;BME280;60181;53.258;6.932;2023-02-13T23:13:15;103774.98;;;15.04;64.35
65659;BME280;60181;53.258;6.932;2023-02-13T23:17:19;103775.10;;;15.04;63.60
65659;BME280;60181;53.258;6.932;2023-02-13T23:21:23;103774.18;;;15.04;63.92
65659;BME280;60181;53.258;6.932;2023-02-13T23:25:27;103772.16;;;15.03;66.90